sensor_id;sensor_type;location;lat;lon;timestamp;pressure;altitude;pressure_sealevel;temperature;humidity
69221;BME280;56331;51.992;20.910;2022-10-15T00:01:11;100168.12;;;22.21;46.43
69221;BME280;56331;51.992;20.910;2022-10-15T00:03:40;100162.95;;;22.19;46.44
69221;BME280;56331;51.992;20.910;2022-10-15T00:06:11;100167.11;;;22.19;46.44
69221;BME280;56331;51.992;20.910;2022-10-15T00:08:38;100160.17;;;22.19;46.44
69221;BME280;56331;51.992;20.910;2022-10-15T00:11:12;100168.21;;;22.18;46.40
69221;BME280;56331;51.992;20.910;2022-10-15T00:13:36;100162.14;;;22.19;46.39
69221;BME280;56331;51.992;20.910;2022-10-15T00:16:05;100163.53;;;22.19;46.35
69221;BME280;56331;51.992;20.910;2022-10-15T00:18:31;100166.61;;;22.17;46.33
69221;BME280;56331;51.992;20.910;2022-10-15T00:20:58;100165.44;;;22.18;46.31
69221;BME280;56331;51.992;20.910;2022-10-15T00:23:26;100159.89;;;22.18;46.34
69221;BME280;56331;51.992;20.910;2022-10-15T00:26:01;100164.05;;;22.18;46.34
69221;BME280;56331;51.992;20.910;2022-10-15T00:28:28;100155.73;;;22.18;46.29
69221;BME280;56331;51.992;20.910;2022-10-15T00:31:08;100153.32;;;22.17;46.30
69221;BME280;56331;51.992;20.910;2022-10-15T00:33:30;100151.12;;;22.16;46.32
69221;BME280;56331;51.992;20.910;2022-10-15T00:35:58;100147.77;;;22.17;46.28
69221;BME280;56331;51.992;20.910;2022-10-15T00:38:25;100144.75;;;22.16;46.28
69221;BME280;56331;51.992;20.910;2022-10-15T00:40:52;100145.58;;;22.16;46.26
69221;BME280;56331;51.992;20.910;2022-10-15T00:46:06;100150.55;;;22.17;46.25
69221;BME280;56331;51.992;20.910;2022-10-15T00:48:33;100141.97;;;22.16;46.22
69221;BME280;56331;51.992;20.910;2022-10-15T00:51:02;100147.30;;;22.15;46.19
69221;BME280;56331;51.992;20.910;2022-10-15T00:53:29;100141.17;;;22.15;46.17
69221;BME280;56331;51.992;20.910;2022-10-15T00:55:56;100138.52;;;22.13;46.17
69221;BME280;56331;51.992;20.910;2022-10-15T00:58:25;100144.31;;;22.14;46.18
69221;BME280;56331;51.992;20.910;2022-10-15T01:00:54;100137.38;;;22.14;46.18
69221;BME280;56331;51.992;20.910;2022-10-15T01:03:21;100136.54;;;22.13;46.14
69221;BME280;56331;51.992;20.910;2022-10-15T01:05:50;100143.47;;;22.13;46.10
69221;BME280;56331;51.992;20.910;2022-10-15T01:08:17;100140.15;;;22.14;46.12
69221;BME280;56331;51.992;20.910;2022-10-15T01:16:27;100136.54;;;22.13;46.03
69221;BME280;56331;51.992;20.910;2022-10-15T01:19:27;100132.16;;;22.12;46.07
69221;BME280;56331;51.992;20.910;2022-10-15T01:21:37;100126.61;;;22.12;46.01
69221;BME280;56331;51.992;20.910;2022-10-15T01:27:16;100122.45;;;22.12;46.02
69221;BME280;56331;51.992;20.910;2022-10-15T01:32:22;100118.87;;;22.12;45.99
69221;BME280;56331;51.992;20.910;2022-10-15T01:41:24;100118.41;;;22.10;45.97
69221;BME280;56331;51.992;20.910;2022-10-15T01:43:14;100112.86;;;22.10;46.01
69221;BME280;56331;51.992;20.910;2022-10-15T01:45:45;100116.44;;;22.10;46.03
69221;BME280;56331;51.992;20.910;2022-10-15T01:48:11;100109.28;;;22.09;45.99
69221;BME280;56331;51.992;20.910;2022-10-15T01:50:45;100106.73;;;22.10;46.00
69221;BME280;56331;51.992;20.910;2022-10-15T01:53:14;100109.50;;;22.10;45.98
69221;BME280;56331;51.992;20.910;2022-10-15T01:55:41;100110.67;;;22.09;45.99
69221;BME280;56331;51.992;20.910;2022-10-15T01:58:10;100113.78;;;22.07;46.02
69221;BME280;56331;51.992;20.910;2022-10-15T02:00:39;100107.09;;;22.09;46.04
69221;BME280;56331;51.992;20.910;2022-10-15T02:03:07;100111.80;;;22.08;45.92
69221;BME280;56331;51.992;20.910;2022-10-15T02:05:39;100107.09;;;22.09;45.35
69221;BME280;56331;51.992;20.910;2022-10-15T02:08:27;100104.87;;;22.08;44.98
69221;BME280;56331;51.992;20.910;2022-10-15T02:16:28;100094.36;;;22.07;44.41
69221;BME280;56331;51.992;20.910;2022-10-15T02:19:17;100094.94;;;22.07;44.21
69221;BME280;56331;51.992;20.910;2022-10-15T02:21:50;100097.13;;;22.07;44.04
69221;BME280;56331;51.992;20.910;2022-10-15T02:24:23;100096.33;;;22.07;43.95
69221;BME280;56331;51.992;20.910;2022-10-15T02:26:52;100086.73;;;22.04;43.79
69221;BME280;56331;51.992;20.910;2022-10-15T02:29:20;100084.77;;;22.05;43.70
69221;BME280;56331;51.992;20.910;2022-10-15T02:31:49;100084.55;;;22.04;43.58
69221;BME280;56331;51.992;20.910;2022-10-15T02:34:18;100073.45;;;22.04;43.53
69221;BME280;56331;51.992;20.910;2022-10-15T02:36:45;100076.45;;;22.05;43.37
69221;BME280;56331;51.992;20.910;2022-10-15T02:39:19;100074.63;;;22.03;43.27
69221;BME280;56331;51.992;20.910;2022-10-15T02:41:44;100075.18;;;22.02;43.23
69221;BME280;56331;51.992;20.910;2022-10-15T02:44:11;100074.04;;;22.03;43.14
69221;BME280;56331;51.992;20.910;2022-10-15T02:46:39;100076.56;;;22.02;43.05
69221;BME280;56331;51.992;20.910;2022-10-15T02:49:05;100077.16;;;22.02;43.01
69221;BME280;56331;51.992;20.910;2022-10-15T02:51:33;100076.56;;;22.02;42.97
69221;BME280;56331;51.992;20.910;2022-10-15T02:54:02;100078.54;;;22.02;42.88
69221;BME280;56331;51.992;20.910;2022-10-15T02:56:29;100073.58;;;22.01;42.81
69221;BME280;56331;51.992;20.910;2022-10-15T02:58:56;100072.19;;;22.01;42.74
69221;BME280;56331;51.992;20.910;2022-10-15T03:01:22;100077.95;;;22.02;42.73
69221;BME280;56331;51.992;20.910;2022-10-15T03:03:48;100074.37;;;22.02;42.70
69221;BME280;56331;51.992;20.910;2022-10-15T03:06:15;100084.33;;;22.03;42.64
69221;BME280;56331;51.992;20.910;2022-10-15T03:08:42;100080.17;;;22.03;42.54
69221;BME280;56331;51.992;20.910;2022-10-15T03:11:10;100079.34;;;22.02;42.48
69221;BME280;56331;51.992;20.910;2022-10-15T03:13:40;100082.11;;;22.02;42.40
69221;BME280;56331;51.992;20.910;2022-10-15T03:16:08;100080.73;;;22.02;42.37
69221;BME280;56331;51.992;20.910;2022-10-15T03:18:36;100074.96;;;22.01;42.31
69221;BME280;56331;51.992;20.910;2022-10-15T03:21:03;100071.39;;;22.01;42.27
69221;BME280;56331;51.992;20.910;2022-10-15T03:23:29;100074.16;;;22.01;42.22
69221;BME280;56331;51.992;20.910;2022-10-15T03:25:55;100067.81;;;22.00;42.19
69221;BME280;56331;51.992;20.910;2022-10-15T03:28:22;100069.75;;;22.00;42.20
69221;BME280;56331;51.992;20.910;2022-10-15T03:30:48;100064.78;;;21.99;42.15
69221;BME280;56331;51.992;20.910;2022-10-15T03:33:15;100064.78;;;21.99;42.14
69221;BME280;56331;51.992;20.910;2022-10-15T03:35:41;100063.18;;;21.98;42.13
69221;BME280;56331;51.992;20.910;2022-10-15T03:38:08;100066.76;;;21.99;42.07
69221;BME280;56331;51.992;20.910;2022-10-15T03:40:34;100066.76;;;21.99;42.08
69221;BME280;56331;51.992;20.910;2022-10-15T03:43:01;100066.17;;;21.99;42.03
69221;BME280;56331;51.992;20.910;2022-10-15T03:45:27;100066.17;;;21.99;42.02
69221;BME280;56331;51.992;20.910;2022-10-15T03:47:53;100062.81;;;22.00;42.04
69221;BME280;56331;51.992;20.910;2022-10-15T03:50:20;100052.67;;;21.98;41.97
69221;BME280;56331;51.992;20.910;2022-10-15T03:52:46;100055.66;;;21.99;41.95
69221;BME280;56331;51.992;20.910;2022-10-15T03:55:13;100050.70;;;21.98;41.94
69221;BME280;56331;51.992;20.910;2022-10-15T03:57:39;100054.06;;;21.98;41.90
69221;BME280;56331;51.992;20.910;2022-10-15T04:03:08;100049.90;;;21.98;41.86
69221;BME280;56331;51.992;20.910;2022-10-15T04:05:35;100044.10;;;21.97;42.10
69221;BME280;56331;51.992;20.910;2022-10-15T04:08:02;100038.56;;;21.97;42.35
69221;BME280;56331;51.992;20.910;2022-10-15T04:10:29;100044.91;;;21.97;42.39
69221;BME280;56331;51.992;20.910;2022-10-15T04:12:55;100042.72;;;21.97;42.48
69221;BME280;56331;51.992;20.910;2022-10-15T04:15:22;100037.41;;;21.98;42.57
69221;BME280;56331;51.992;20.910;2022-10-15T04:17:48;100045.95;;;21.99;42.65
69221;BME280;56331;51.992;20.910;2022-10-15T04:20:16;100035.78;;;21.97;42.70
69221;BME280;56331;51.992;20.910;2022-10-15T04:22:43;100040.75;;;21.97;42.76
69221;BME280;56331;51.992;20.910;2022-10-15T04:25:09;100041.80;;;21.99;42.86
69221;BME280;56331;51.992;20.910;2022-10-15T04:27:36;100034.86;;;21.99;43.00
69221;BME280;56331;51.992;20.910;2022-10-15T04:30:03;100026.54;;;21.99;43.12
69221;BME280;56331;51.992;20.910;2022-10-15T04:32:30;100028.52;;;21.98;43.25
69221;BME280;56331;51.992;20.910;2022-10-15T04:34:56;100028.73;;;21.99;43.34
69221;BME280;56331;51.992;20.910;2022-10-15T04:37:23;100027.92;;;21.99;43.42
69221;BME280;56331;51.992;20.910;2022-10-15T04:39:49;100030.70;;;21.99;43.55
69221;BME280;56331;51.992;20.910;2022-10-15T04:42:16;100031.28;;;21.98;43.61
69221;BME280;56331;51.992;20.910;2022-10-15T04:44:42;100037.63;;;21.99;43.62
69221;BME280;56331;51.992;20.910;2022-10-15T04:47:08;100040.19;;;21.98;43.69
69221;BME280;56331;51.992;20.910;2022-10-15T04:49:35;100035.20;;;21.97;43.81
69221;BME280;56331;51.992;20.910;2022-10-15T04:52:01;100037.41;;;21.98;43.90
69221;BME280;56331;51.992;20.910;2022-10-15T04:54:28;100034.64;;;21.98;44.00
69221;BME280;56331;51.992;20.910;2022-10-15T04:56:54;100031.62;;;21.97;44.07
69221;BME280;56331;51.992;20.910;2022-10-15T04:59:21;100028.84;;;21.97;44.10
69221;BME280;56331;51.992;20.910;2022-10-15T05:01:47;100027.70;;;21.98;44.13
69221;BME280;56331;51.992;20.910;2022-10-15T05:04:14;100033.25;;;21.98;44.17
69221;BME280;56331;51.992;20.910;2022-10-15T05:06:40;100034.64;;;21.98;44.23
69221;BME280;56331;51.992;20.910;2022-10-15T05:09:06;100035.45;;;21.98;44.28
69221;BME280;56331;51.992;20.910;2022-10-15T05:11:35;100031.04;;;21.97;44.38
69221;BME280;56331;51.992;20.910;2022-10-15T05:14:03;100037.17;;;21.97;44.50
69221;BME280;56331;51.992;20.910;2022-10-15T05:16:30;100029.77;;;21.95;44.58
69221;BME280;56331;51.992;20.910;2022-10-15T05:19:02;100025.86;;;21.96;44.66
69221;BME280;56331;51.992;20.910;2022-10-15T05:21:29;100028.84;;;21.97;44.72
69221;BME280;56331;51.992;20.910;2022-10-15T05:23:57;100032.42;;;21.97;44.84
69221;BME280;56331;51.992;20.910;2022-10-15T05:26:26;100027.13;;;21.98;45.08
69221;BME280;56331;51.992;20.910;2022-10-15T05:28:55;100028.84;;;21.97;45.37
69221;BME280;56331;51.992;20.910;2022-10-15T05:31:26;100026.32;;;21.98;45.61
69221;BME280;56331;51.992;20.910;2022-10-15T05:33:52;100025.27;;;21.96;45.80
69221;BME280;56331;51.992;20.910;2022-10-15T05:36:27;100021.91;;;21.97;45.98
69221;BME280;56331;51.992;20.910;2022-10-15T05:38:56;100034.06;;;21.98;46.07
69221;BME280;56331;51.992;20.910;2022-10-15T05:41:24;100037.17;;;21.97;46.11
69221;BME280;56331;51.992;20.910;2022-10-15T05:43:51;100039.94;;;21.97;46.18
69221;BME280;56331;51.992;20.910;2022-10-15T05:46:19;100038.56;;;21.97;46.23
69221;BME280;56331;51.992;20.910;2022-10-15T05:48:53;100033.01;;;21.97;46.33
69221;BME280;56331;51.992;20.910;2022-10-15T05:51:21;100034.39;;;21.97;46.49
69221;BME280;56331;51.992;20.910;2022-10-15T05:53:50;100034.39;;;21.97;46.62
69221;BME280;56331;51.992;20.910;2022-10-15T05:56:17;100037.17;;;21.97;46.71
69221;BME280;56331;51.992;20.910;2022-10-15T05:58:44;100034.98;;;21.96;46.82
69221;BME280;56331;51.992;20.910;2022-10-15T06:01:11;100031.16;;;21.95;46.81
69221;BME280;56331;51.992;20.910;2022-10-15T06:03:39;100034.52;;;21.94;46.79
69221;BME280;56331;51.992;20.910;2022-10-15T06:06:16;100028.97;;;21.94;46.33
69221;BME280;56331;51.992;20.910;2022-10-15T06:08:41;100034.18;;;21.96;46.09
69221;BME280;56331;51.992;20.910;2022-10-15T06:11:07;100038.34;;;21.96;45.95
69221;BME280;56331;51.992;20.910;2022-10-15T06:13:34;100038.34;;;21.96;45.93
69221;BME280;56331;51.992;20.910;2022-10-15T06:16:02;100039.94;;;21.97;45.98
69221;BME280;56331;51.992;20.910;2022-10-15T06:18:29;100046.54;;;21.98;45.98
69221;BME280;56331;51.992;20.910;2022-10-15T06:23:37;100051.38;;;22.01;45.88
69221;BME280;56331;51.992;20.910;2022-10-15T06:26:05;100043.64;;;21.95;46.00
69221;BME280;56331;51.992;20.910;2022-10-15T06:28:32;100043.89;;;21.96;45.95
69221;BME280;56331;51.992;20.910;2022-10-15T06:30:59;100046.87;;;21.97;45.97
69221;BME280;56331;51.992;20.910;2022-10-15T06:33:26;100038.92;;;21.95;45.90
69221;BME280;56331;51.992;20.910;2022-10-15T06:35:53;100043.64;;;21.95;45.82
69221;BME280;56331;51.992;20.910;2022-10-15T06:38:23;100045.86;;;21.95;45.69
69221;BME280;56331;51.992;20.910;2022-10-15T06:40:50;100051.95;;;21.95;45.65
69221;BME280;56331;51.992;20.910;2022-10-15T06:43:16;100051.41;;;21.95;45.64
69221;BME280;56331;51.992;20.910;2022-10-15T06:45:42;100048.97;;;21.94;45.58
69221;BME280;56331;51.992;20.910;2022-10-15T06:48:10;100058.09;;;21.94;45.59
69221;BME280;56331;51.992;20.910;2022-10-15T06:50:38;100062.83;;;21.94;45.64
69221;BME280;56331;51.992;20.910;2022-10-15T06:53:05;100062.25;;;21.94;45.73
69221;BME280;56331;51.992;20.910;2022-10-15T06:55:32;100067.80;;;21.94;45.70
69221;BME280;56331;51.992;20.910;2022-10-15T06:57:58;100059.84;;;21.93;45.67
69221;BME280;56331;51.992;20.910;2022-10-15T07:00:25;100068.16;;;21.93;45.67
69221;BME280;56331;51.992;20.910;2022-10-15T07:02:52;100061.23;;;21.93;45.74
69221;BME280;56331;51.992;20.910;2022-10-15T07:05:19;100066.77;;;21.93;45.80
69221;BME280;56331;51.992;20.910;2022-10-15T07:07:59;100070.10;;;21.92;45.94
69221;BME280;56331;51.992;20.910;2022-10-15T07:10:26;100072.54;;;21.94;46.07
69221;BME280;56331;51.992;20.910;2022-10-15T07:12:53;100077.28;;;21.93;46.12
69221;BME280;56331;51.992;20.910;2022-10-15T07:15:20;100078.67;;;21.93;46.15
69221;BME280;56331;51.992;20.910;2022-10-15T07:17:48;100073.12;;;21.93;46.31
69221;BME280;56331;51.992;20.910;2022-10-15T07:20:17;100070.94;;;21.93;46.47
69221;BME280;56331;51.992;20.910;2022-10-15T07:22:44;100072.07;;;21.92;46.41
69221;BME280;56331;51.992;20.910;2022-10-15T07:25:11;100077.03;;;21.92;46.31
69221;BME280;56331;51.992;20.910;2022-10-15T07:27:38;100077.62;;;21.92;46.13
69221;BME280;56331;51.992;20.910;2022-10-15T07:30:05;100079.81;;;21.92;46.06
69221;BME280;56331;51.992;20.910;2022-10-15T07:32:33;100073.45;;;21.92;45.93
69221;BME280;56331;51.992;20.910;2022-10-15T07:35:00;100070.35;;;21.93;45.74
69221;BME280;56331;51.992;20.910;2022-10-15T07:37:26;100070.10;;;21.92;45.60
69221;BME280;56331;51.992;20.910;2022-10-15T07:39:52;100076.48;;;21.93;45.54
69221;BME280;56331;51.992;20.910;2022-10-15T07:42:19;100079.00;;;21.92;45.44
69221;BME280;56331;51.992;20.910;2022-10-15T07:44:45;100072.07;;;21.92;45.37
69221;BME280;56331;51.992;20.910;2022-10-15T07:47:12;100070.47;;;21.91;45.35
69221;BME280;56331;51.992;20.910;2022-10-15T07:49:38;100076.02;;;21.91;45.28
69221;BME280;56331;51.992;20.910;2022-10-15T07:52:05;100076.59;;;21.90;45.32
69221;BME280;56331;51.992;20.910;2022-10-15T07:54:33;100077.41;;;21.91;45.28
69221;BME280;56331;51.992;20.910;2022-10-15T07:57:00;100072.99;;;21.90;45.25
69221;BME280;56331;51.992;20.910;2022-10-15T07:59:26;100068.83;;;21.90;45.18
69221;BME280;56331;51.992;20.910;2022-10-15T08:01:53;100075.77;;;21.90;45.19
69221;BME280;56331;51.992;20.910;2022-10-15T08:04:19;100072.19;;;21.89;45.20
69221;BME280;56331;51.992;20.910;2022-10-15T08:06:46;100074.16;;;21.89;45.27
69221;BME280;56331;51.992;20.910;2022-10-15T08:09:12;100072.55;;;21.88;45.35
69221;BME280;56331;51.992;20.910;2022-10-15T08:11:39;100065.62;;;21.88;45.31
69221;BME280;56331;51.992;20.910;2022-10-15T08:14:05;100075.08;;;21.87;45.29
69221;BME280;56331;51.992;20.910;2022-10-15T08:16:32;100069.53;;;21.87;45.24
69221;BME280;56331;51.992;20.910;2022-10-15T08:18:58;100064.57;;;21.86;45.24
69221;BME280;56331;51.992;20.910;2022-10-15T08:21:26;100066.76;;;21.87;45.21
69221;BME280;56331;51.992;20.910;2022-10-15T08:23:52;100077.85;;;21.87;45.22
69221;BME280;56331;51.992;20.910;2022-10-15T08:26:19;100070.45;;;21.84;45.26
69221;BME280;56331;51.992;20.910;2022-10-15T08:28:45;100073.22;;;21.84;45.26
69221;BME280;56331;51.992;20.910;2022-10-15T08:31:11;100070.23;;;21.83;45.28
69221;BME280;56331;51.992;20.910;2022-10-15T08:33:38;100071.41;;;21.82;45.36
69221;BME280;56331;51.992;20.910;2022-10-15T08:36:06;100061.91;;;21.83;45.35
69221;BME280;56331;51.992;20.910;2022-10-15T08:38:33;100061.70;;;21.82;45.38
69221;BME280;56331;51.992;20.910;2022-10-15T08:41:01;100070.02;;;21.82;45.33
69221;BME280;56331;51.992;20.910;2022-10-15T08:43:35;100069.43;;;21.83;45.29
69221;BME280;56331;51.992;20.910;2022-10-15T08:46:10;100061.70;;;21.82;45.33
69221;BME280;56331;51.992;20.910;2022-10-15T08:48:49;100055.69;;;21.80;45.35
69221;BME280;56331;51.992;20.910;2022-10-15T08:51:23;100063.41;;;21.81;45.43
69221;BME280;56331;51.992;20.910;2022-10-15T08:53:57;100058.45;;;21.80;45.45
69221;BME280;56331;51.992;20.910;2022-10-15T08:59:13;100063.20;;;21.80;45.48
69221;BME280;56331;51.992;20.910;2022-10-15T09:01:49;100057.66;;;21.80;45.48
69221;BME280;56331;51.992;20.910;2022-10-15T09:04:36;100050.14;;;21.80;45.51
69221;BME280;56331;51.992;20.910;2022-10-15T09:07:12;100052.66;;;21.79;45.53
69221;BME280;56331;51.992;20.910;2022-10-15T09:15:19;100049.67;;;21.78;45.66
69221;BME280;56331;51.992;20.910;2022-10-15T09:17:48;100049.45;;;21.77;45.64
69221;BME280;56331;51.992;20.910;2022-10-15T09:20:20;100050.03;;;21.77;45.74
69221;BME280;56331;51.992;20.910;2022-10-15T09:22:48;100045.30;;;21.77;45.71
69221;BME280;56331;51.992;20.910;2022-10-15T09:25:18;100057.88;;;21.75;45.76
69221;BME280;56331;51.992;20.910;2022-10-15T09:27:46;100051.76;;;21.75;45.81
69221;BME280;56331;51.992;20.910;2022-10-15T09:33:15;100049.20;;;21.76;45.82
69221;BME280;56331;51.992;20.910;2022-10-15T09:35:44;100052.22;;;21.77;45.80
69221;BME280;56331;51.992;20.910;2022-10-15T09:38:22;100053.36;;;21.76;45.86
69221;BME280;56331;51.992;20.910;2022-10-15T09:43:31;100048.40;;;21.76;45.94
69221;BME280;56331;51.992;20.910;2022-10-15T09:46:02;100044.83;;;21.75;45.92
69221;BME280;56331;51.992;20.910;2022-10-15T09:49:01;100049.20;;;21.76;45.93
69221;BME280;56331;51.992;20.910;2022-10-15T09:56:36;100053.48;;;21.74;45.91
69221;BME280;56331;51.992;20.910;2022-10-15T09:59:03;100057.08;;;21.74;45.94
69221;BME280;56331;51.992;20.910;2022-10-15T10:01:31;100055.11;;;21.75;45.89
69221;BME280;56331;51.992;20.910;2022-10-15T10:04:18;100063.65;;;21.76;45.85
69221;BME280;56331;51.992;20.910;2022-10-15T10:06:47;100058.69;;;21.75;45.83
69221;BME280;56331;51.992;20.910;2022-10-15T10:09:23;100053.73;;;21.75;45.83
69221;BME280;56331;51.992;20.910;2022-10-15T10:11:53;100046.55;;;21.74;45.82
69221;BME280;56331;51.992;20.910;2022-10-15T10:14:32;100047.59;;;21.75;45.85
69221;BME280;56331;51.992;20.910;2022-10-15T10:17:18;100042.05;;;21.75;45.87
69221;BME280;56331;51.992;20.910;2022-10-15T10:20:04;100041.25;;;21.75;45.89
69221;BME280;56331;51.992;20.910;2022-10-15T10:22:40;100037.09;;;21.75;45.97
69221;BME280;56331;51.992;20.910;2022-10-15T10:25:00;100042.05;;;21.75;46.07
69221;BME280;56331;51.992;20.910;2022-10-15T10:27:29;100034.44;;;21.72;46.12
69221;BME280;56331;51.992;20.910;2022-10-15T10:29:58;100029.69;;;21.73;46.17
69221;BME280;56331;51.992;20.910;2022-10-15T10:32:30;100028.52;;;21.74;46.22
69221;BME280;56331;51.992;20.910;2022-10-15T10:34:59;100034.90;;;21.74;46.13
69221;BME280;56331;51.992;20.910;2022-10-15T10:37:27;100027.39;;;21.75;46.32
69221;BME280;56331;51.992;20.910;2022-10-15T10:39:59;100027.97;;;21.74;46.59
69221;BME280;56331;51.992;20.910;2022-10-15T10:42:34;100020.45;;;21.75;46.76
69221;BME280;56331;51.992;20.910;2022-10-15T10:45:18;100020.09;;;21.76;47.08
69221;BME280;56331;51.992;20.910;2022-10-15T10:47:45;100019.07;;;21.75;47.19
69221;BME280;56331;51.992;20.910;2022-10-15T10:50:27;100011.77;;;21.76;47.10
69221;BME280;56331;51.992;20.910;2022-10-15T10:52:55;100007.98;;;21.75;47.13
69221;BME280;56331;51.992;20.910;2022-10-15T10:55:23;100015.71;;;21.75;47.16
69221;BME280;56331;51.992;20.910;2022-10-15T10:57:53;100011.55;;;21.75;47.20
69221;BME280;56331;51.992;20.910;2022-10-15T11:00:40;100015.49;;;21.74;47.27
69221;BME280;56331;51.992;20.910;2022-10-15T11:03:30;100012.14;;;21.75;47.40
69221;BME280;56331;51.992;20.910;2022-10-15T11:08:53;100010.75;;;21.75;48.35
69221;BME280;56331;51.992;20.910;2022-10-15T11:19:29;100007.98;;;21.75;50.30
69221;BME280;56331;51.992;20.910;2022-10-15T11:25:00;100007.61;;;21.76;49.83
69221;BME280;56331;51.992;20.910;2022-10-15T11:27:59;100010.97;;;21.76;49.60
69221;BME280;56331;51.992;20.910;2022-10-15T11:33:26;100009.00;;;21.76;49.26
69221;BME280;56331;51.992;20.910;2022-10-15T11:41:27;100010.63;;;21.77;48.87
69221;BME280;56331;51.992;20.910;2022-10-15T11:43:59;100005.89;;;21.78;48.74
69221;BME280;56331;51.992;20.910;2022-10-15T11:55:16;100004.84;;;21.76;48.40
69221;BME280;56331;51.992;20.910;2022-10-15T11:57:44;100001.84;;;21.75;48.32
69221;BME280;56331;51.992;20.910;2022-10-15T12:02:52;100002.66;;;21.76;48.17
69221;BME280;56331;51.992;20.910;2022-10-15T12:05:30;99999.88;;;21.76;47.93
69221;BME280;56331;51.992;20.910;2022-10-15T12:07:56;100005.09;;;21.77;47.46
69221;BME280;56331;51.992;20.910;2022-10-15T12:13:23;100002.66;;;21.76;47.23
69221;BME280;56331;51.992;20.910;2022-10-15T12:18:42;100002.06;;;21.76;47.04
69221;BME280;56331;51.992;20.910;2022-10-15T12:23:59;100002.06;;;21.76;46.87
69221;BME280;56331;51.992;20.910;2022-10-15T12:26:33;100000.46;;;21.75;46.78
69221;BME280;56331;51.992;20.910;2022-10-15T12:29:03;100002.06;;;21.76;46.65
69221;BME280;56331;51.992;20.910;2022-10-15T12:31:44;99997.91;;;21.76;46.69
69221;BME280;56331;51.992;20.910;2022-10-15T12:34:29;100002.31;;;21.77;46.58
69221;BME280;56331;51.992;20.910;2022-10-15T12:37:02;100004.28;;;21.77;46.48
69221;BME280;56331;51.992;20.910;2022-10-15T12:39:29;100005.89;;;21.78;46.38
69221;BME280;56331;51.992;20.910;2022-10-15T12:41:56;100003.92;;;21.78;46.29
69221;BME280;56331;51.992;20.910;2022-10-15T12:44:33;100006.11;;;21.79;46.27
69221;BME280;56331;51.992;20.910;2022-10-15T12:46:57;100003.34;;;21.79;46.23
69221;BME280;56331;51.992;20.910;2022-10-15T12:52:02;100007.49;;;21.79;47.21
69221;BME280;56331;51.992;20.910;2022-10-15T12:59:54;100000.23;;;21.80;50.39
69221;BME280;56331;51.992;20.910;2022-10-15T13:02:42;100001.83;;;21.81;49.77
69221;BME280;56331;51.992;20.910;2022-10-15T13:05:32;100002.30;;;21.83;49.38
69221;BME280;56331;51.992;20.910;2022-10-15T13:07:39;100004.73;;;21.85;49.33
69221;BME280;56331;51.992;20.910;2022-10-15T13:10:18;100001.50;;;21.83;49.25
69221;BME280;56331;51.992;20.910;2022-10-15T13:12:50;100005.53;;;21.85;49.12
69221;BME280;56331;51.992;20.910;2022-10-15T13:15:18;100005.75;;;21.87;48.98
69221;BME280;56331;51.992;20.910;2022-10-15T13:17:45;100002.39;;;21.87;48.84
69221;BME280;56331;51.992;20.910;2022-10-15T13:20:39;100006.00;;;21.88;48.78
69221;BME280;56331;51.992;20.910;2022-10-15T13:23:08;100003.45;;;21.89;48.69
69221;BME280;56331;51.992;20.910;2022-10-15T13:25:34;100000.67;;;21.89;48.60
69221;BME280;56331;51.992;20.910;2022-10-15T13:28:01;99999.88;;;21.88;48.52
69221;BME280;56331;51.992;20.910;2022-10-15T13:30:27;100004.83;;;21.89;48.43
69221;BME280;56331;51.992;20.910;2022-10-15T13:32:54;100005.63;;;21.89;48.36
69221;BME280;56331;51.992;20.910;2022-10-15T13:35:28;100011.43;;;21.90;48.28
69221;BME280;56331;51.992;20.910;2022-10-15T13:37:54;100008.41;;;21.89;48.25
69221;BME280;56331;51.992;20.910;2022-10-15T13:40:24;100013.15;;;21.89;48.18
69221;BME280;56331;51.992;20.910;2022-10-15T13:43:14;100009.80;;;21.89;48.15
69221;BME280;56331;51.992;20.910;2022-10-15T13:45:32;100012.34;;;21.88;48.10
69221;BME280;56331;51.992;20.910;2022-10-15T13:47:58;100012.34;;;21.88;48.02
69221;BME280;56331;51.992;20.910;2022-10-15T13:50:34;100011.18;;;21.89;48.02
69221;BME280;56331;51.992;20.910;2022-10-15T13:55:45;100008.77;;;21.88;47.95
69221;BME280;56331;51.992;20.910;2022-10-15T13:58:29;100013.73;;;21.88;47.89
69221;BME280;56331;51.992;20.910;2022-10-15T14:00:58;100011.88;;;21.86;47.83
69221;BME280;56331;51.992;20.910;2022-10-15T14:03:29;100017.64;;;21.87;47.82
69221;BME280;56331;51.992;20.910;2022-10-15T14:08:39;100017.09;;;21.88;47.72
69221;BME280;56331;51.992;20.910;2022-10-15T14:11:05;100009.91;;;21.87;47.69
69221;BME280;56331;51.992;20.910;2022-10-15T14:13:31;100014.32;;;21.88;47.73
69221;BME280;56331;51.992;20.910;2022-10-15T14:16:12;100015.70;;;21.88;47.71
69221;BME280;56331;51.992;20.910;2022-10-15T14:18:43;100017.64;;;21.87;47.73
69221;BME280;56331;51.992;20.910;2022-10-15T14:21:12;100012.69;;;21.87;47.67
69221;BME280;56331;51.992;20.910;2022-10-15T14:23:40;100007.72;;;21.86;47.67
69221;BME280;56331;51.992;20.910;2022-10-15T14:26:09;100015.45;;;21.87;47.65
69221;BME280;56331;51.992;20.910;2022-10-15T14:28:37;100006.34;;;21.86;47.63
69221;BME280;56331;51.992;20.910;2022-10-15T14:31:05;100011.30;;;21.87;47.59
69221;BME280;56331;51.992;20.910;2022-10-15T14:38:46;100015.70;;;21.88;46.84
69221;BME280;56331;51.992;20.910;2022-10-15T14:41:33;100014.88;;;21.87;46.63
69221;BME280;56331;51.992;20.910;2022-10-15T14:46:36;100010.16;;;21.88;46.40